Time;durP1;ratioP1;P1;durP2;ratioP2;P2;SDS_P1;SDS_P2;PMS_P1;PMS_P2;Temp;Humidity;BMP_temperature;BMP_pressure;BME280_temperature;BME280_humidity;BME280_pressure;Samples;Min_cycle;Max_cycle;Signal;HPM_P1;HPM_P2
2022/03/23 00:01:26;;;;;;;;;;;;;;;7.74;100.00;100361.41;5109367;28;19931;-79
2022/03/23 00:03:53;;;;;;;;;;;;;;;8.00;100.00;100364.19;5110934;28;19924;-79
2022/03/23 00:06:21;;;;;;;;;;;;;;;7.47;100.00;100361.78;5109946;28;19928;-79
2022/03/23 00:08:49;;;;;;;;;;;;;;;7.52;100.00;100364.22;5110832;28;19931;-79
2022/03/23 00:11:17;;;;;;;;;;;;;;;7.61;100.00;100362.81;5109549;28;19959;-79
2022/03/23 00:13:44;;;;;;;;;;;;;;;8.00;100.00;100358.63;5110647;28;20022;-79
2022/03/23 00:16:11;;;;;;;;;;;;;;;7.87;100.00;100370.34;5110517;28;20367;-79
2022/03/23 00:18:38;;;;;;;;;;;;;;;7.91;100.00;100360.88;5109546;28;19924;-79
2022/03/23 00:21:05;;;;;;;;;;;;;;;7.98;100.00;100357.41;5110572;28;19955;-79
2022/03/23 00:23:32;;;;;;;;;;;;;;;7.90;100.00;100362.06;5109176;28;19931;-79
2022/03/23 00:25:59;;;;;;;;;;;;;;;8.03;100.00;100360.66;5109899;28;19975;-79
2022/03/23 00:28:27;;;;;;;;;;;;;;;8.06;100.00;100362.69;5092592;28;20432;-80
2022/03/23 00:30:54;;;;;;;;;;;;;;;8.15;100.00;100354.88;5109197;28;19967;-79
2022/03/23 00:33:29;;;;;;;;;;;;;;;7.97;100.00;100364.13;5109266;28;19951;-79
2022/03/23 00:35:57;;;;;;;;;;;;;;;7.90;100.00;100364.84;5092307;28;20529;-79
2022/03/23 00:38:24;;;;;;;;;;;;;;;7.96;100.00;100368.91;5095047;28;19947;-79
2022/03/23 00:40:51;;;;;;;;;;;;;;;8.01;100.00;100370.59;5112759;28;19924;-79
2022/03/23 00:43:18;;;;;;;;;;;;;;;8.04;100.00;100376.19;5095496;28;19928;-79
2022/03/23 00:45:45;;;;;;;;;;;;;;;7.96;100.00;100366.13;5129011;27;20366;-79
2022/03/23 00:48:12;;;;;;;;;;;;;;;7.68;100.00;100374.03;5096458;28;19924;-79
2022/03/23 00:50:39;;;;;;;;;;;;;;;7.55;100.00;100380.16;5078332;28;19928;-79
2022/03/23 00:53:07;;;;;;;;;;;;;;;7.55;100.00;100380.97;5061891;28;20023;-79
2022/03/23 00:55:34;;;;;;;;;;;;;;;7.62;100.00;100381.09;5078439;28;20405;-79
2022/03/23 00:58:01;;;;;;;;;;;;;;;7.46;100.00;100382.38;5078377;28;19947;-79
2022/03/23 01:00:29;;;;;;;;;;;;;;;6.89;100.00;100381.34;5094666;28;19924;-79
2022/03/23 01:02:59;;;;;;;;;;;;;;;7.14;100.00;100384.59;5096212;28;19970;-79
2022/03/23 01:05:27;;;;;;;;;;;;;;;7.38;100.00;100378.69;5094871;28;19931;-79
2022/03/23 01:07:54;;;;;;;;;;;;;;;7.33;100.00;100378.97;5095246;28;19930;-79
2022/03/23 01:10:21;;;;;;;;;;;;;;;7.43;100.00;100381.16;5094835;28;19924;-79
2022/03/23 01:12:49;;;;;;;;;;;;;;;7.43;100.00;100372.81;5061554;28;19932;-79
2022/03/23 01:15:19;;;;;;;;;;;;;;;7.19;100.00;100381.53;5077727;28;19997;-79
2022/03/23 01:17:47;;;;;;;;;;;;;;;6.71;100.00;100376.63;5096058;28;20378;-79
2022/03/23 01:20:15;;;;;;;;;;;;;;;6.45;100.00;100382.81;5061427;28;19950;-79
2022/03/23 01:22:43;;;;;;;;;;;;;;;6.30;100.00;100391.22;5095681;28;20066;-79
2022/03/23 01:25:14;;;;;;;;;;;;;;;6.47;100.00;100386.06;5128751;27;19959;-79
2022/03/23 01:27:42;;;;;;;;;;;;;;;6.80;100.00;100388.31;5094298;28;19963;-79
2022/03/23 01:30:13;;;;;;;;;;;;;;;6.51;100.00;100392.47;5060918;28;19932;-79
2022/03/23 01:32:42;;;;;;;;;;;;;;;6.86;100.00;100398.75;5077808;28;20391;-79
2022/03/23 01:35:09;;;;;;;;;;;;;;;6.96;100.00;100391.81;5094541;28;20015;-79
2022/03/23 01:37:37;;;;;;;;;;;;;;;7.01;100.00;100394.28;5044197;28;19924;-79
2022/03/23 01:40:06;;;;;;;;;;;;;;;6.89;100.00;100391.69;5094159;28;19924;-79
2022/03/23 01:42:36;;;;;;;;;;;;;;;6.59;100.00;100387.88;5095135;28;19985;-79
2022/03/23 01:45:04;;;;;;;;;;;;;;;6.67;100.00;100392.41;5094161;28;20283;-79
2022/03/23 01:47:32;;;;;;;;;;;;;;;6.67;100.00;100392.41;5060506;28;20366;-79
2022/03/23 01:49:59;;;;;;;;;;;;;;;6.24;100.00;100393.47;5076228;28;20341;-79
2022/03/23 01:52:28;;;;;;;;;;;;;;;6.48;100.00;100393.19;5094854;28;20339;-79
2022/03/23 01:54:56;;;;;;;;;;;;;;;6.68;100.00;100380.94;5093832;28;20019;-80
2022/03/23 01:57:23;;;;;;;;;;;;;;;6.78;100.00;100382.31;5094870;28;19935;-79
2022/03/23 01:59:51;;;;;;;;;;;;;;;6.85;100.00;100386.03;5093792;28;19928;-79
2022/03/23 02:02:19;;;;;;;;;;;;;;;6.78;100.00;100380.34;5093947;28;19924;-79
2022/03/23 02:05:01;;;;;;;;;;;;;;;6.74;100.00;100373.13;5093817;28;20011;-79
2022/03/23 02:07:30;;;;;;;;;;;;;;;6.71;100.00;100365.53;5094788;28;19928;-79
2022/03/23 02:09:57;;;;;;;;;;;;;;;6.73;100.00;100363.16;5077019;28;19949;-79
2022/03/23 02:12:38;;;;;;;;;;;;;;;6.71;100.00;100368.31;5078347;28;19980;-80
2022/03/23 02:15:16;;;;;;;;;;;;;;;6.70;100.00;100363.91;5093668;28;19962;-79
2022/03/23 02:17:43;;;;;;;;;;;;;;;6.65;100.00;100369.78;5093457;28;19924;-79
2022/03/23 02:20:11;;;;;;;;;;;;;;;6.58;100.00;100359.31;5093551;28;20031;-79
2022/03/23 02:22:39;;;;;;;;;;;;;;;6.58;100.00;100362.09;5076514;28;20394;-80
2022/03/23 02:25:07;;;;;;;;;;;;;;;6.32;100.00;100361.13;5093281;28;20038;-80
2022/03/23 02:27:36;;;;;;;;;;;;;;;6.18;100.00;100352.50;5092699;28;19978;-80
2022/03/23 02:30:07;;;;;;;;;;;;;;;6.05;100.00;100362.91;5094561;28;20294;-79
2022/03/23 02:32:34;;;;;;;;;;;;;;;6.02;100.00;100362.81;5093470;28;20343;-79
2022/03/23 02:35:01;;;;;;;;;;;;;;;6.02;100.00;100360.06;5094197;28;19928;-79
2022/03/23 02:37:29;;;;;;;;;;;;;;;6.05;100.00;100362.09;5093523;28;20007;-79
2022/03/23 02:39:56;;;;;;;;;;;;;;;6.26;100.00;100363.38;5077185;28;19924;-79
2022/03/23 02:42:23;;;;;;;;;;;;;;;6.26;100.00;100359.78;5056349;28;19925;-79
2022/03/23 02:44:50;;;;;;;;;;;;;;;6.11;100.00;100352.31;5072878;28;19993;-79
2022/03/23 02:47:18;;;;;;;;;;;;;;;6.20;100.00;100356.50;5072969;28;20414;-79
2022/03/23 02:49:45;;;;;;;;;;;;;;;6.14;100.00;100363.50;5072688;28;20023;-79
2022/03/23 02:52:12;;;;;;;;;;;;;;;6.18;100.00;100356.06;5073931;28;19970;-79
2022/03/23 03:03:24;;;;;;;;;;;;;;;6.04;100.00;100366.06;5073671;28;20363;-79
2022/03/23 03:05:51;;;;;;;;;;;;;;;5.74;100.00;100364.94;5072583;28;20545;-79
2022/03/23 03:11:04;;;;;;;;;;;;;;;5.27;100.00;100370.50;5072293;28;19928;-79
2022/03/23 03:13:31;;;;;;;;;;;;;;;5.57;100.00;100371.66;5056128;28;19931;-79
2022/03/23 03:15:59;;;;;;;;;;;;;;;5.72;100.00;100370.03;5072537;28;19939;-79
2022/03/23 03:18:29;;;;;;;;;;;;;;;5.49;100.00;100362.38;5056038;28;19925;-79
2022/03/23 03:20:56;;;;;;;;;;;;;;;5.71;100.00;100360.09;5072372;28;19924;-79
2022/03/23 03:23:26;;;;;;;;;;;;;;;5.78;100.00;100352.75;5072433;28;19925;-79
2022/03/23 03:25:55;;;;;;;;;;;;;;;5.74;100.00;100356.59;5055945;28;19925;-79
2022/03/23 03:28:24;;;;;;;;;;;;;;;5.39;100.00;100356.56;5055693;28;20012;-79
2022/03/23 03:30:51;;;;;;;;;;;;;;;5.01;100.00;100359.91;5073496;28;19928;-79
2022/03/23 03:33:22;;;;;;;;;;;;;;;5.25;100.00;100370.03;5072701;28;20314;-79
2022/03/23 03:35:49;;;;;;;;;;;;;;;5.55;100.00;100372.03;5072410;28;20019;-79
2022/03/23 03:38:16;;;;;;;;;;;;;;;5.59;100.00;100370.13;5072346;28;19932;-79
2022/03/23 03:40:45;;;;;;;;;;;;;;;5.63;100.00;100372.19;5072182;28;19924;-79
2022/03/23 03:43:12;;;;;;;;;;;;;;;5.57;100.00;100378.00;5072097;28;19924;-79
2022/03/23 03:45:40;;;;;;;;;;;;;;;5.52;100.00;100372.75;5073340;28;19967;-79
2022/03/23 03:48:08;;;;;;;;;;;;;;;5.56;100.00;100376.38;5072033;28;19974;-79
2022/03/23 03:50:35;;;;;;;;;;;;;;;5.39;100.00;100373.97;5073763;28;20551;-79
2022/03/23 03:53:02;;;;;;;;;;;;;;;5.52;100.00;100378.28;5072001;28;19986;-79
2022/03/23 03:55:30;;;;;;;;;;;;;;;5.68;100.00;100383.00;5072285;28;19952;-79
2022/03/23 03:57:58;;;;;;;;;;;;;;;5.70;100.00;100377.88;5073335;28;20355;-79
2022/03/23 04:00:25;;;;;;;;;;;;;;;5.85;100.00;100379.84;5073411;28;20311;-79
2022/03/23 04:02:52;;;;;;;;;;;;;;;5.92;100.00;100363.41;5073393;28;20044;-79
2022/03/23 04:05:19;;;;;;;;;;;;;;;5.02;100.00;100374.56;5072176;28;20601;-80
2022/03/23 04:07:46;;;;;;;;;;;;;;;5.00;100.00;100374.94;5055399;28;19956;-79
2022/03/23 04:10:14;;;;;;;;;;;;;;;5.46;100.00;100367.81;5073991;28;19932;-79
2022/03/23 04:12:42;;;;;;;;;;;;;;;5.63;100.00;100368.22;5080057;28;19929;-79
2022/03/23 04:15:09;;;;;;;;;;;;;;;5.48;100.00;100365.50;5077032;28;19930;-79
2022/03/23 04:17:36;;;;;;;;;;;;;;;5.64;100.00;100366.28;5084042;28;19931;-79
2022/03/23 04:20:04;;;;;;;;;;;;;;;5.78;100.00;100357.47;5097340;28;19963;-79
2022/03/23 04:22:31;;;;;;;;;;;;;;;5.43;100.00;100362.97;5097083;28;19925;-79
2022/03/23 04:24:58;;;;;;;;;;;;;;;5.48;100.00;100352.41;5097013;28;20270;-79
2022/03/23 04:27:26;;;;;;;;;;;;;;;5.32;100.00;100359.13;5129746;27;19928;-79
2022/03/23 04:29:53;;;;;;;;;;;;;;;4.86;100.00;100352.38;5088088;28;20373;-79
2022/03/23 04:32:20;;;;;;;;;;;;;;;5.18;100.00;100367.09;5076647;28;20445;-79
2022/03/23 04:34:48;;;;;;;;;;;;;;;5.42;100.00;100356.63;5059344;28;19932;-79
2022/03/23 04:37:15;;;;;;;;;;;;;;;4.75;100.00;100353.25;5076467;28;20006;-79
2022/03/23 04:39:42;;;;;;;;;;;;;;;4.64;100.00;100366.00;5075464;28;19924;-79
2022/03/23 04:42:09;;;;;;;;;;;;;;;5.18;100.00;100372.66;5076594;28;20476;-79
2022/03/23 04:44:37;;;;;;;;;;;;;;;5.34;100.00;100371.50;5076504;28;19931;-79
2022/03/23 04:47:05;;;;;;;;;;;;;;;5.21;100.00;100378.25;5076480;28;19924;-79
2022/03/23 04:49:32;;;;;;;;;;;;;;;5.32;100.00;100376.56;5075521;28;20011;-79
2022/03/23 04:52:00;;;;;;;;;;;;;;;4.78;100.00;100375.53;5076187;28;19935;-79
2022/03/23 04:54:28;;;;;;;;;;;;;;;4.79;100.00;100381.84;5075158;28;20036;-79
2022/03/23 04:56:55;;;;;;;;;;;;;;;5.12;100.00;100379.59;5076228;28;19932;-79
2022/03/23 04:59:23;;;;;;;;;;;;;;;5.17;100.00;100391.22;5075190;28;19924;-79
2022/03/23 05:01:50;;;;;;;;;;;;;;;5.08;100.00;100384.22;5076292;28;19928;-79
2022/03/23 05:04:17;;;;;;;;;;;;;;;4.67;100.00;100381.91;5076207;28;19924;-79
2022/03/23 05:06:46;;;;;;;;;;;;;;;4.47;100.00;100386.47;5085640;28;20363;-79
2022/03/23 05:09:13;;;;;;;;;;;;;;;4.52;100.00;100397.31;5061905;28;19950;-79
2022/03/23 05:11:40;;;;;;;;;;;;;;;4.97;100.00;100388.66;5096393;28;19924;-79
2022/03/23 05:14:07;;;;;;;;;;;;;;;4.78;100.00;100394.09;5095072;28;19932;-79
2022/03/23 05:16:35;;;;;;;;;;;;;;;4.79;100.00;100393.75;5096235;28;19931;-79
2022/03/23 05:19:02;;;;;;;;;;;;;;;4.71;100.00;100403.00;5096182;28;19931;-79
2022/03/23 05:21:29;;;;;;;;;;;;;;;4.23;100.00;100391.28;5095688;28;19924;-79
2022/03/23 05:23:56;;;;;;;;;;;;;;;4.06;100.00;100391.56;5095979;28;19924;-79
2022/03/23 05:26:24;;;;;;;;;;;;;;;4.57;100.00;100393.50;5094495;28;19932;-79
2022/03/23 05:28:51;;;;;;;;;;;;;;;4.98;100.00;100388.31;5095668;28;19928;-80
2022/03/23 05:31:18;;;;;;;;;;;;;;;5.25;100.00;100400.53;5095782;28;19932;-79
2022/03/23 05:33:45;;;;;;;;;;;;;;;5.02;100.00;100397.56;5086384;28;20011;-79
2022/03/23 05:36:13;;;;;;;;;;;;;;;4.89;100.00;100404.28;5063682;28;19925;-79
2022/03/23 05:40:14;;;;;;;;;;;;;;;4.91;100.00;100404.75;5091463;28;20476;-79
2022/03/23 05:42:42;;;;;;;;;;;;;;;5.09;100.00;100414.34;5091299;28;19924;-79
2022/03/23 05:45:09;;;;;;;;;;;;;;;4.86;100.00;100412.53;5090219;28;20374;-79
2022/03/23 05:47:37;;;;;;;;;;;;;;;5.20;100.00;100417.41;5073201;28;19943;-79
2022/03/23 05:50:04;;;;;;;;;;;;;;;5.30;100.00;100420.47;5089731;28;19924;-79
2022/03/23 05:52:31;;;;;;;;;;;;;;;5.31;100.00;100412.97;5091277;28;19925;-80
2022/03/23 05:54:58;;;;;;;;;;;;;;;5.02;100.00;100416.94;5073189;28;20369;-79
2022/03/23 05:57:25;;;;;;;;;;;;;;;4.87;100.00;100401.09;5090986;28;19929;-79
2022/03/23 05:59:52;;;;;;;;;;;;;;;5.07;100.00;100402.81;5091218;28;19929;-79
2022/03/23 06:02:20;;;;;;;;;;;;;;;5.15;100.00;100401.84;5091097;28;19939;-79
2022/03/23 06:04:47;;;;;;;;;;;;;;;5.20;100.00;100398.81;5123181;27;20015;-80
2022/03/23 06:07:14;;;;;;;;;;;;;;;5.18;100.00;100403.13;5091046;28;19924;-79
2022/03/23 06:09:41;;;;;;;;;;;;;;;5.15;100.00;100399.06;5089779;28;19978;-79
2022/03/23 06:12:11;;;;;;;;;;;;;;;5.23;100.00;100403.66;5090779;28;19931;-79
2022/03/23 06:14:42;;;;;;;;;;;;;;;4.89;100.00;100398.75;5089685;28;20316;-79
2022/03/23 06:17:09;;;;;;;;;;;;;;;4.95;100.00;100394.56;5090940;28;19993;-79
2022/03/23 06:19:37;;;;;;;;;;;;;;;4.77;100.00;100401.59;5086095;28;19925;-79
2022/03/23 06:22:08;;;;;;;;;;;;;;;4.78;100.00;100411.53;5089463;28;20394;-79
2022/03/23 06:24:42;;;;;;;;;;;;;;;4.90;100.00;100405.94;5090656;28;19924;-81
2022/03/23 06:27:09;;;;;;;;;;;;;;;4.94;100.00;100408.78;5091033;28;20003;-82
2022/03/23 06:29:36;;;;;;;;;;;;;;;5.23;100.00;100420.28;5123723;28;19928;-82
2022/03/23 06:32:03;;;;;;;;;;;;;;;5.25;100.00;100417.97;5091259;28;20022;-82
2022/03/23 06:34:31;;;;;;;;;;;;;;;5.33;100.00;100419.75;5090736;28;19924;-83
2022/03/23 06:36:58;;;;;;;;;;;;;;;5.56;100.00;100429.06;5089425;28;19983;-83
2022/03/23 06:39:25;;;;;;;;;;;;;;;5.71;100.00;100426.66;5072554;28;19932;-83
2022/03/23 06:41:52;;;;;;;;;;;;;;;5.26;100.00;100430.66;5090811;28;19970;-83
2022/03/23 06:44:19;;;;;;;;;;;;;;;5.20;100.00;100432.06;5089340;28;19977;-83
2022/03/23 06:46:46;;;;;;;;;;;;;;;5.58;100.00;100432.31;5072250;28;19928;-83
2022/03/23 06:49:13;;;;;;;;;;;;;;;5.70;100.00;100425.03;5072367;28;19924;-83
2022/03/23 06:51:40;;;;;;;;;;;;;;;5.84;100.00;100428.19;5058694;28;20015;-82
2022/03/23 06:54:07;;;;;;;;;;;;;;;5.01;100.00;100428.38;5076800;28;19928;-83
2022/03/23 06:56:34;;;;;;;;;;;;;;;5.27;100.00;100432.25;5075380;28;19932;-83
2022/03/23 06:59:03;;;;;;;;;;;;;;;5.73;100.00;100436.22;5075378;28;19929;-83
2022/03/23 07:01:34;;;;;;;;;;;;;;;5.92;100.00;100435.53;5075541;28;20016;-83
2022/03/23 07:04:01;;;;;;;;;;;;;;;6.17;100.00;100432.19;5042046;28;19924;-83
2022/03/23 07:06:28;;;;;;;;;;;;;;;6.33;100.00;100426.59;5058946;28;20371;-83
2022/03/23 07:11:42;;;;;;;;;;;;;;;6.51;100.00;100445.22;5041943;28;19955;-83
2022/03/23 07:14:11;;;;;;;;;;;;;;;6.63;100.00;100456.25;5075625;28;19924;-83
2022/03/23 07:16:38;;;;;;;;;;;;;;;6.67;100.00;100448.78;5075024;28;20023;-83
2022/03/23 07:19:05;;;;;;;;;;;;;;;6.55;100.00;100439.75;5058221;28;20376;-75
2022/03/23 07:21:33;;;;;;;;;;;;;;;6.42;100.00;100443.84;5058416;28;19924;-80
2022/03/23 07:24:00;;;;;;;;;;;;;;;6.56;100.00;100439.41;5076105;28;19931;-79
2022/03/23 07:26:27;;;;;;;;;;;;;;;6.32;100.00;100452.72;5075890;28;19929;-79
2022/03/23 07:28:54;;;;;;;;;;;;;;;6.84;100.00;100461.44;5075855;28;19931;-80
2022/03/23 07:31:21;;;;;;;;;;;;;;;7.01;100.00;100461.78;5057825;28;19974;-80
2022/03/23 07:33:50;;;;;;;;;;;;;;;6.92;100.00;100460.41;5075791;28;19925;-80
2022/03/23 07:36:18;;;;;;;;;;;;;;;6.96;100.00;100461.28;5075608;28;19978;-80
2022/03/23 07:39:07;;;;;;;;;;;;;;;7.52;100.00;100464.34;5060708;28;20011;-79
2022/03/23 07:42:02;;;;;;;;;;;;;;;7.58;100.00;100474.81;5065054;28;20494;-80
2022/03/23 07:44:32;;;;;;;;;;;;;;;8.09;100.00;100464.16;5039260;28;19960;-80
2022/03/23 07:47:00;;;;;;;;;;;;;;;8.32;100.00;100462.16;5073237;28;19978;-80
2022/03/23 07:49:27;;;;;;;;;;;;;;;8.39;100.00;100465.84;5058566;28;19925;-80
2022/03/23 07:51:57;;;;;;;;;;;;;;;8.52;100.00;100470.03;5055528;28;19925;-80
2022/03/23 07:54:25;;;;;;;;;;;;;;;8.60;100.00;100460.56;5054226;28;19925;-80
2022/03/23 07:56:52;;;;;;;;;;;;;;;8.82;100.00;100461.69;5059731;28;19931;-79
2022/03/23 07:59:19;;;;;;;;;;;;;;;9.43;100.00;100456.44;5063240;28;19939;-80
2022/03/23 08:01:46;;;;;;;;;;;;;;;10.24;100.00;100459.97;5032386;28;19987;-79
2022/03/23 08:04:14;;;;;;;;;;;;;;;10.86;100.00;100453.16;5057104;28;19925;-80
2022/03/23 08:06:42;;;;;;;;;;;;;;;11.32;100.00;100448.56;5073632;28;19939;-80
2022/03/23 08:09:09;;;;;;;;;;;;;;;11.44;100.00;100453.00;5073795;28;20383;-81
2022/03/23 08:11:39;;;;;;;;;;;;;;;11.80;100.00;100455.50;5075004;28;19924;-80
2022/03/23 08:14:06;;;;;;;;;;;;;;;12.20;100.00;100452.31;5073179;28;19928;-81
2022/03/23 08:16:34;;;;;;;;;;;;;;;12.36;100.00;100452.69;5074815;28;19924;-81
2022/03/23 08:19:01;;;;;;;;;;;;;;;12.05;100.00;100456.31;5074017;28;19928;-81
2022/03/23 08:21:29;;;;;;;;;;;;;;;12.19;100.00;100464.69;5074750;28;19989;-81
2022/03/23 08:23:57;;;;;;;;;;;;;;;12.87;100.00;100456.97;5073618;28;19929;-82
2022/03/23 08:26:25;;;;;;;;;;;;;;;12.02;100.00;100467.50;5074717;28;19947;-83
2022/03/23 08:28:52;;;;;;;;;;;;;;;12.10;100.00;100464.31;5074419;28;19924;-81
2022/03/23 08:31:23;;;;;;;;;;;;;;;12.99;100.00;100462.97;5073526;28;19931;-81
2022/03/23 08:33:50;;;;;;;;;;;;;;;13.73;100.00;100456.97;5073355;28;19970;-81
2022/03/23 08:36:17;;;;;;;;;;;;;;;14.16;100.00;100458.28;5074305;28;19989;-81
2022/03/23 08:38:45;;;;;;;;;;;;;;;14.41;100.00;100447.63;5071416;28;19931;-83
2022/03/23 08:41:13;;;;;;;;;;;;;;;14.55;100.00;100443.88;5073339;28;20497;-82
2022/03/23 08:43:41;;;;;;;;;;;;;;;14.71;100.00;100444.88;5087240;28;20268;-80
2022/03/23 08:46:08;;;;;;;;;;;;;;;14.82;100.00;100441.97;5072973;28;19993;-81
2022/03/23 08:48:35;;;;;;;;;;;;;;;14.97;100.00;100447.00;5074215;28;19962;-81
2022/03/23 08:51:03;;;;;;;;;;;;;;;14.79;100.00;100446.41;5039778;28;19929;-81
2022/03/23 08:53:31;;;;;;;;;;;;;;;14.51;100.00;100449.50;5065537;28;19924;-80
2022/03/23 08:55:59;;;;;;;;;;;;;;;14.43;100.00;100445.97;5074067;28;19924;-79
2022/03/23 08:58:26;;;;;;;;;;;;;;;14.35;100.00;100452.09;5072563;28;19924;-80
2022/03/23 09:00:53;;;;;;;;;;;;;;;14.56;100.00;100460.31;5072893;28;19932;-79
2022/03/23 09:03:21;;;;;;;;;;;;;;;14.85;100.00;100452.38;5069370;28;19955;-78
2022/03/23 09:05:48;;;;;;;;;;;;;;;15.02;100.00;100460.63;5106443;28;19999;-80
2022/03/23 09:08:15;;;;;;;;;;;;;;;15.20;100.00;100460.41;5072883;28;19924;-81
2022/03/23 09:10:42;;;;;;;;;;;;;;;15.41;100.00;100460.16;5072502;28;20501;-81
2022/03/23 09:13:09;;;;;;;;;;;;;;;15.49;100.00;100462.47;5062330;28;19939;-81
2022/03/23 09:15:37;;;;;;;;;;;;;;;15.49;100.00;100462.47;5065656;28;19925;-81
2022/03/23 09:18:04;;;;;;;;;;;;;;;15.43;100.00;100457.72;5073695;28;20310;-81
2022/03/23 09:20:32;;;;;;;;;;;;;;;15.42;100.00;100454.09;5072640;28;19943;-81
2022/03/23 09:22:59;;;;;;;;;;;;;;;15.48;100.00;100460.84;5073872;28;19924;-81
2022/03/23 09:25:27;;;;;;;;;;;;;;;15.42;100.00;100465.38;5073860;28;20061;-81
2022/03/23 09:27:54;;;;;;;;;;;;;;;15.69;100.00;100469.00;5073476;28;20007;-81
2022/03/23 09:30:21;;;;;;;;;;;;;;;15.53;100.00;100468.03;5055895;28;19924;-81
2022/03/23 09:32:49;;;;;;;;;;;;;;;15.37;100.00;100460.19;5070116;28;19998;-76
2022/03/23 09:35:16;;;;;;;;;;;;;;;15.53;100.00;100470.84;5061844;28;19994;-80
2022/03/23 09:37:49;;;;;;;;;;;;;;;15.56;100.00;100473.63;5071783;28;19924;-80
2022/03/23 09:40:20;;;;;;;;;;;;;;;15.74;100.00;100474.16;5073590;28;19975;-80
2022/03/23 09:42:50;;;;;;;;;;;;;;;15.55;100.00;100466.41;5057925;28;20578;-79
2022/03/23 09:45:46;;;;;;;;;;;;;;;15.70;100.00;100467.81;5067531;28;20116;-79
2022/03/23 09:48:26;;;;;;;;;;;;;;;15.49;100.00;100470.91;5071409;28;19924;-79
2022/03/23 09:50:54;;;;;;;;;;;;;;;15.38;100.00;100470.25;5072281;28;20508;-78
2022/03/23 09:53:23;;;;;;;;;;;;;;;15.86;100.00;100464.31;5073452;28;20011;-78
2022/03/23 09:55:54;;;;;;;;;;;;;;;16.00;100.00;100464.09;5073446;28;19931;-80
2022/03/23 09:58:21;;;;;;;;;;;;;;;15.95;100.00;100461.75;5086699;28;19931;-81
2022/03/23 10:00:50;;;;;;;;;;;;;;;16.16;100.00;100459.41;5055654;28;19924;-82
2022/03/23 10:03:40;;;;;;;;;;;;;;;16.25;100.00;100465.31;5055900;28;20410;-82
2022/03/23 10:06:26;;;;;;;;;;;;;;;16.31;100.00;100450.72;5066265;28;20458;-82
2022/03/23 10:09:03;;;;;;;;;;;;;;;16.24;100.00;100463.72;5059814;28;20010;-81
2022/03/23 10:11:36;;;;;;;;;;;;;;;16.17;100.00;100463.84;5069058;28;20379;-82
2022/03/23 10:14:15;;;;;;;;;;;;;;;16.07;100.00;100461.16;5056351;28;20378;-82
2022/03/23 10:16:48;;;;;;;;;;;;;;;16.22;100.00;100466.16;5052540;28;19925;-81
2022/03/23 10:19:15;;;;;;;;;;;;;;;16.22;100.00;100460.50;5054168;28;19929;-81
2022/03/23 10:21:42;;;;;;;;;;;;;;;16.25;100.00;100456.84;5036061;28;20391;-81
2022/03/23 10:24:14;;;;;;;;;;;;;;;16.39;100.00;100460.66;5061588;28;19930;-81
2022/03/23 10:26:43;;;;;;;;;;;;;;;16.63;100.00;100456.63;5076725;28;19929;-81
2022/03/23 10:29:19;;;;;;;;;;;;;;;16.48;100.00;100456.06;5092859;28;19924;-81
2022/03/23 10:32:08;;;;;;;;;;;;;;;16.51;100.00;100457.25;5076169;28;19929;-81
2022/03/23 10:34:36;;;;;;;;;;;;;;;16.54;100.00;100450.75;5092942;28;20283;-81
2022/03/23 10:37:03;;;;;;;;;;;;;;;16.82;100.00;100441.72;5077300;28;20025;-81
2022/03/23 10:39:31;;;;;;;;;;;;;;;16.37;100.00;100452.63;5075307;28;20375;-82
2022/03/23 10:42:04;;;;;;;;;;;;;;;17.04;100.00;100448.56;5075904;28;19931;-81
2022/03/23 10:44:32;;;;;;;;;;;;;;;17.45;100.00;100452.53;5076381;28;19925;-82
2022/03/23 10:46:59;;;;;;;;;;;;;;;17.34;100.00;100448.34;5075924;28;19931;-81
2022/03/23 10:49:30;;;;;;;;;;;;;;;16.93;100.00;100445.97;5076967;28;19925;-81
2022/03/23 10:52:06;;;;;;;;;;;;;;;17.33;100.00;100455.19;5076798;28;19931;-81
2022/03/23 10:54:33;;;;;;;;;;;;;;;17.48;100.00;100462.16;5076725;28;20376;-81
2022/03/23 10:57:02;;;;;;;;;;;;;;;17.78;100.00;100444.94;5076903;28;19924;-82
2022/03/23 10:59:29;;;;;;;;;;;;;;;17.64;100.00;100450.91;5075448;28;22331;-82
2022/03/23 11:02:08;;;;;;;;;;;;;;;18.01;100.00;100441.94;5075554;28;19924;-81
2022/03/23 11:04:40;;;;;;;;;;;;;;;17.92;100.00;100445.38;5075796;28;19975;-82
2022/03/23 11:07:21;;;;;;;;;;;;;;;17.43;100.00;100445.72;5076750;28;19987;-81
2022/03/23 11:18:17;;;;;;;;;;;;;;;17.32;100.00;100425.34;5075070;28;19928;-82
2022/03/23 11:20:46;;;;;;;;;;;;;;;17.85;100.00;100427.78;5075347;28;19931;-81
2022/03/23 11:23:24;;;;;;;;;;;;;;;18.09;100.00;100417.91;5075017;28;19924;-81
2022/03/23 11:25:53;;;;;;;;;;;;;;;18.26;100.00;100422.31;5073651;28;20015;-81
2022/03/23 11:28:22;;;;;;;;;;;;;;;17.82;100.00;100411.72;5056612;28;20287;-81
2022/03/23 11:31:18;;;;;;;;;;;;;;;18.06;100.00;100410.31;5055742;28;20351;-76
2022/03/23 11:33:49;;;;;;;;;;;;;;;18.35;100.00;100416.03;5042870;28;19951;-81
2022/03/23 11:36:17;;;;;;;;;;;;;;;17.90;100.00;100405.44;5069320;28;19930;-82
2022/03/23 11:38:47;;;;;;;;;;;;;;;18.13;100.00;100407.28;5057663;28;19934;-82
2022/03/23 11:41:15;;;;;;;;;;;;;;;18.21;100.00;100396.59;5074741;28;19985;-81
2022/03/23 11:43:42;;;;;;;;;;;;;;;18.31;100.00;100390.66;5087263;28;19932;-82
2022/03/23 11:46:14;;;;;;;;;;;;;;;18.06;100.00;100396.16;5070241;28;19924;-82
2022/03/23 11:48:56;;;;;;;;;;;;;;;18.46;100.00;100391.91;5075955;28;19986;-81
2022/03/23 11:51:23;;;;;;;;;;;;;;;18.54;100.00;100389.69;5074650;28;19928;-82
2022/03/23 11:54:06;;;;;;;;;;;;;;;18.05;100.00;100393.78;5074521;28;19925;-81
2022/03/23 11:56:36;;;;;;;;;;;;;;;18.26;100.00;100404.56;5075903;28;19925;-81
2022/03/23 11:59:23;;;;;;;;;;;;;;;18.02;100.00;100389.81;5074735;28;20423;-82
2022/03/23 12:01:50;;;;;;;;;;;;;;;18.23;100.00;100397.75;5057831;28;19986;-82
2022/03/23 12:04:22;;;;;;;;;;;;;;;18.09;100.00;100386.78;5075933;28;19925;-82
2022/03/23 12:06:59;;;;;;;;;;;;;;;18.34;100.00;100383.31;5091219;28;19931;-82
2022/03/23 12:09:41;;;;;;;;;;;;;;;18.17;100.00;100376.91;5091392;28;19924;-82
2022/03/23 12:12:27;;;;;;;;;;;;;;;18.07;100.00;100375.13;5074339;28;19935;-81
2022/03/23 12:15:27;;;;;;;;;;;;;;;18.77;100.00;100367.56;5074470;28;19928;-81
2022/03/23 12:17:54;;;;;;;;;;;;;;;18.43;100.00;100370.16;5084641;28;20329;-81
2022/03/23 12:20:37;;;;;;;;;;;;;;;19.09;100.00;100360.97;5074069;28;20263;-82
2022/03/23 12:23:23;;;;;;;;;;;;;;;19.37;100.00;100346.75;5075226;28;19925;-81
2022/03/23 12:25:53;;;;;;;;;;;;;;;19.00;100.00;100353.16;5074372;28;19931;-81
2022/03/23 12:28:24;;;;;;;;;;;;;;;19.26;100.00;100360.44;5107793;28;19960;-82
2022/03/23 12:30:57;;;;;;;;;;;;;;;19.56;100.00;100354.25;5075146;28;19974;-82
2022/03/23 12:33:26;;;;;;;;;;;;;;;19.24;100.00;100357.25;5074186;28;19932;-81
2022/03/23 12:35:59;;;;;;;;;;;;;;;19.39;100.00;100358.44;5073594;28;19925;-82
2022/03/23 12:38:29;;;;;;;;;;;;;;;18.99;100.00;100359.25;5073661;28;19948;-81
2022/03/23 12:41:01;;;;;;;;;;;;;;;18.43;100.00;100358.84;5056942;28;20023;-82
2022/03/23 12:43:36;;;;;;;;;;;;;;;18.88;100.00;100353.09;5073821;28;19963;-81
2022/03/23 12:46:04;;;;;;;;;;;;;;;18.12;100.00;100343.47;5057161;28;19928;-81
2022/03/23 12:59:50;;;;;;;;;;;;;;;19.75;100.00;100328.94;5073492;28;19931;-82
2022/03/23 13:02:19;;;;;;;;;;;;;;;19.54;100.00;100331.22;5069123;28;19925;-81
2022/03/23 13:04:46;;;;;;;;;;;;;;;18.98;100.00;100321.63;5071687;28;20295;-83
2022/03/23 13:07:28;;;;;;;;;;;;;;;18.78;100.00;100323.84;5067788;28;19973;-81
2022/03/23 13:10:06;;;;;;;;;;;;;;;18.26;100.00;100320.47;5065420;28;20336;-81
2022/03/23 13:12:33;;;;;;;;;;;;;;;18.80;100.00;100320.56;5067965;28;20257;-81
2022/03/23 13:15:13;;;;;;;;;;;;;;;19.16;100.00;100327.56;5075911;28;19928;-81
2022/03/23 13:17:41;;;;;;;;;;;;;;;18.34;100.00;100321.06;5072690;28;19925;-81
2022/03/23 13:20:09;;;;;;;;;;;;;;;18.74;100.00;100317.50;5072612;28;19932;-82